Time;durP1;ratioP1;P1;durP2;ratioP2;P2;SDS_P1;SDS_P2;PMS_P1;PMS_P2;Temp;Humidity;BMP_temperature;BMP_pressure;BME280_temperature;BME280_humidity;BME280_pressure;Samples;Min_cycle;Max_cycle;Signal;HPM_P1;HPM_P2
2022/12/05 00:01:34;;;;;;;31.42;21.50;;;7.20;68.20;;;;;;5027583;28;20065;-51
2022/12/05 00:04:05;;;;;;;32.58;20.38;;;7.20;68.20;;;;;;5017817;28;20517;-50
2022/12/05 00:06:34;;;;;;;30.85;20.08;;;7.20;68.20;;;;;;4994988;28;20054;-49
2022/12/05 00:09:00;;;;;;;30.52;21.52;;;7.20;68.20;;;;;;5006342;28;20045;-50
2022/12/05 00:11:29;;;;;;;29.15;19.55;;;7.20;68.20;;;;;;5033334;28;20490;-48
2022/12/05 00:13:58;;;;;;;35.63;21.65;;;7.30;68.30;;;;;;5025801;28;20061;-51
2022/12/05 00:16:27;;;;;;;34.58;20.17;;;7.30;68.30;;;;;;5020466;28;20041;-47
2022/12/05 00:18:54;;;;;;;30.90;20.10;;;7.30;68.20;;;;;;5018153;28;20054;-47
2022/12/05 00:21:24;;;;;;;28.50;19.10;;;7.30;68.00;;;;;;5032114;28;20037;-46
2022/12/05 00:23:52;;;;;;;30.80;19.17;;;7.30;68.00;;;;;;5027540;28;20080;-49
2022/12/05 00:26:19;;;;;;;32.05;20.10;;;7.30;68.00;;;;;;5014314;28;20398;-48
2022/12/05 00:28:46;;;;;;;30.80;19.13;;;7.30;68.10;;;;;;5029283;28;20474;-47
2022/12/05 00:31:16;;;;;;;28.00;18.58;;;7.30;68.10;;;;;;5024231;28;20041;-51
2022/12/05 00:33:43;;;;;;;29.00;18.75;;;7.30;68.10;;;;;;5033688;28;20038;-49
2022/12/05 00:36:13;;;;;;;31.52;20.17;;;7.30;68.10;;;;;;5024981;28;20506;-48
2022/12/05 00:38:43;;;;;;;29.40;19.30;;;7.30;68.10;;;;;;5027638;28;20505;-50
2022/12/05 00:41:28;;;;;;;32.42;19.38;;;7.30;68.00;;;;;;5024183;28;20069;-50
2022/12/05 00:43:58;;;;;;;30.98;19.33;;;7.30;68.20;;;;;;5033624;28;20132;-47
2022/12/05 00:46:29;;;;;;;33.63;21.00;;;7.30;68.00;;;;;;5032098;28;20033;-47
2022/12/05 00:49:02;;;;;;;32.33;20.47;;;7.30;68.00;;;;;;5028947;28;20044;-51
2022/12/05 00:51:34;;;;;;;31.35;19.42;;;7.30;68.00;;;;;;5024548;28;20049;-48
2022/12/05 00:54:09;;;;;;;33.70;20.33;;;7.30;68.00;;;;;;5025411;28;20122;-48
2022/12/05 00:56:36;;;;;;;30.92;20.02;;;7.30;68.00;;;;;;5026475;28;20069;-48
2022/12/05 00:59:03;;;;;;;34.55;20.23;;;7.30;67.90;;;;;;5029264;28;20041;-49
2022/12/05 01:01:37;;;;;;;32.15;20.00;;;7.30;67.90;;;;;;5024234;28;20048;-51
2022/12/05 01:04:09;;;;;;;32.25;20.35;;;7.30;68.10;;;;;;5032781;28;20087;-48
2022/12/05 01:06:40;;;;;;;32.50;18.92;;;7.20;68.00;;;;;;5029412;28;20072;-48
2022/12/05 01:09:07;;;;;;;28.60;19.85;;;7.20;68.10;;;;;;5031647;28;20498;-51
2022/12/05 01:11:36;;;;;;;32.22;21.00;;;7.20;68.20;;;;;;5024520;28;20100;-48
2022/12/05 01:14:09;;;;;;;33.55;20.45;;;7.20;68.30;;;;;;5026984;28;20450;-49
2022/12/05 01:16:40;;;;;;;34.80;20.92;;;7.20;68.30;;;;;;5022109;28;20530;-47
2022/12/05 01:19:11;;;;;;;31.10;19.05;;;7.20;68.40;;;;;;5024213;28;20041;-50
2022/12/05 01:21:38;;;;;;;34.47;21.17;;;7.30;68.60;;;;;;5012803;28;20070;-48
2022/12/05 01:24:09;;;;;;;34.78;20.45;;;7.30;68.50;;;;;;5016073;28;20042;-50
2022/12/05 01:26:42;;;;;;;34.33;20.17;;;7.20;68.50;;;;;;5032711;28;20418;-48
2022/12/05 01:29:14;;;;;;;31.88;20.27;;;7.30;68.50;;;;;;5024188;28;20168;-49
2022/12/05 01:31:43;;;;;;;33.05;21.25;;;7.30;68.40;;;;;;5031734;28;20453;-47
2022/12/05 01:34:14;;;;;;;29.13;20.02;;;7.30;68.40;;;;;;5024978;28;20041;-48
2022/12/05 01:36:43;;;;;;;32.35;20.35;;;7.30;68.50;;;;;;5017788;28;20079;-47
2022/12/05 01:39:12;;;;;;;34.88;20.95;;;7.30;68.50;;;;;;5023738;28;20045;-50
2022/12/05 01:41:44;;;;;;;36.70;22.30;;;7.30;68.40;;;;;;5031951;28;20052;-49
2022/12/05 01:44:13;;;;;;;33.45;20.60;;;7.30;68.50;;;;;;5025247;28;20137;-51
2022/12/05 01:46:51;;;;;;;31.17;21.05;;;7.30;68.50;;;;;;5043144;28;20041;-47
2022/12/05 01:49:31;;;;;;;33.20;21.92;;;7.40;68.70;;;;;;5029996;28;20120;-50
2022/12/05 01:52:04;;;;;;;33.92;20.65;;;7.40;69.00;;;;;;5031101;28;20080;-48
2022/12/05 01:54:34;;;;;;;36.65;22.60;;;7.40;68.80;;;;;;5026225;28;20041;-49
2022/12/05 01:57:07;;;;;;;34.20;21.38;;;7.40;68.70;;;;;;5023820;28;20494;-47
2022/12/05 01:59:37;;;;;;;35.22;21.63;;;7.40;68.50;;;;;;5047514;28;20041;-51
2022/12/05 02:02:05;;;;;;;38.80;23.02;;;7.40;68.40;;;;;;5026111;28;20037;-47
2022/12/05 02:04:37;;;;;;;35.33;22.98;;;7.40;68.40;;;;;;5023797;28;20501;-46
2022/12/05 02:07:03;;;;;;;;;;;7.40;68.30;;;;;;5032422;28;20037;-47
2022/12/05 02:09:33;;;;;;;35.92;20.98;;;7.50;68.60;;;;;;5028004;28;19921;-46
2022/12/05 02:12:01;;;;;;;39.10;22.25;;;7.40;67.90;;;;;;5021103;28;20045;-48
2022/12/05 02:14:45;;;;;;;33.33;22.33;;;7.40;67.90;;;;;;5028205;28;20414;-48
2022/12/05 02:17:36;;;;;;;41.47;22.77;;;7.40;68.20;;;;;;5010657;28;20041;-47
2022/12/05 02:20:28;;;;;;;34.40;22.05;;;7.40;68.30;;;;;;5011431;28;20096;-45
2022/12/05 02:23:19;;;;;;;40.13;23.20;;;7.40;68.50;;;;;;5022932;28;20052;-51
2022/12/05 02:26:06;;;;;;;37.42;22.35;;;7.40;68.30;;;;;;5018483;28;20038;-51
2022/12/05 02:28:50;;;;;;;37.10;23.25;;;7.40;68.30;;;;;;5031754;28;20120;-47
2022/12/05 02:31:39;;;;;;;32.60;21.67;;;7.40;68.20;;;;;;5024679;28;20048;-50
2022/12/05 02:34:21;;;;;;;38.15;23.33;;;7.40;68.20;;;;;;5016610;28;20441;-47
2022/12/05 02:36:52;;;;;;;36.33;21.92;;;7.30;68.10;;;;;;5031556;28;20128;-50
2022/12/05 02:39:37;;;;;;;33.88;22.50;;;7.30;68.10;;;;;;5026849;28;20048;-49
2022/12/05 02:42:17;;;;;;;37.05;22.27;;;7.30;68.10;;;;;;5023225;28;20046;-51
2022/12/05 02:44:55;;;;;;;32.13;21.75;;;7.30;68.20;;;;;;4991494;28;20050;-46
2022/12/05 02:47:26;;;;;;;36.20;23.40;;;7.30;68.20;;;;;;4995568;28;20053;-47
2022/12/05 02:50:01;;;;;;;36.88;21.20;;;7.30;68.20;;;;;;5026134;28;20099;-51
2022/12/05 02:52:30;;;;;;;36.33;22.70;;;7.30;68.50;;;;;;5028807;28;20055;-48
2022/12/05 02:55:00;;;;;;;35.33;22.55;;;7.30;68.40;;;;;;5019306;28;20041;-47
2022/12/05 02:57:27;;;;;;;38.20;24.55;;;7.30;68.50;;;;;;5010919;28;20038;-47
2022/12/05 02:59:54;;;;;;;35.30;22.38;;;7.30;68.50;;;;;;5022524;28;20041;-51
2022/12/05 03:02:26;;;;;;;34.38;22.42;;;7.30;68.50;;;;;;5021929;28;20225;-48
2022/12/05 03:05:03;;;;;;;33.90;22.42;;;7.30;68.60;;;;;;5031126;28;20045;-47
2022/12/05 03:07:36;;;;;;;35.10;21.05;;;7.30;68.60;;;;;;5027126;28;20107;-50
2022/12/05 03:10:13;;;;;;;38.67;21.80;;;7.40;68.70;;;;;;5028547;28;20095;-47
2022/12/05 03:12:50;;;;;;;34.22;22.17;;;7.40;68.70;;;;;;5023100;28;20494;-50
2022/12/05 03:15:24;;;;;;;40.10;23.85;;;7.40;68.70;;;;;;5026731;28;20062;-49
2022/12/05 03:18:05;;;;;;;33.67;21.45;;;7.40;68.60;;;;;;5016616;28;20056;-51
2022/12/05 03:20:37;;;;;;;35.85;22.88;;;7.40;68.60;;;;;;5020977;28;20056;-47
2022/12/05 03:23:18;;;;;;;28.92;20.10;;;7.40;68.50;;;;;;5025885;28;20129;-47
2022/12/05 03:25:45;;;;;;;37.80;22.95;;;7.40;68.50;;;;;;5003338;28;20047;-46
2022/12/05 03:28:29;;;;;;;37.63;22.70;;;7.40;68.40;;;;;;5024856;28;20067;-51
2022/12/05 03:31:08;;;;;;;35.50;23.15;;;7.40;68.70;;;;;;5021380;28;20045;-50
2022/12/05 03:33:44;;;;;;;40.05;24.73;;;7.50;68.70;;;;;;5030523;28;20105;-48
2022/12/05 03:36:22;;;;;;;32.88;21.33;;;7.50;68.60;;;;;;5042117;28;20092;-47
2022/12/05 03:39:20;;;;;;;35.15;21.77;;;7.50;68.50;;;;;;5030109;28;20128;-51
2022/12/05 03:42:03;;;;;;;35.70;21.73;;;7.50;68.80;;;;;;5017395;28;20050;-50
2022/12/05 03:44:40;;;;;;;33.10;21.83;;;7.50;68.50;;;;;;5026799;28;20084;-50
2022/12/05 03:47:39;;;;;;;38.50;23.38;;;7.50;68.50;;;;;;5026580;28;20049;-48
2022/12/05 03:50:25;;;;;;;35.95;21.20;;;7.50;68.40;;;;;;5015051;28;20057;-48
2022/12/05 03:53:05;;;;;;;39.78;23.70;;;7.50;68.40;;;;;;5014879;28;20537;-49
2022/12/05 03:56:25;;;;;;;32.03;21.55;;;7.50;68.40;;;;;;5013213;28;20103;-51
2022/12/05 03:59:11;;;;;;;30.60;20.60;;;7.50;68.60;;;;;;4984652;28;20429;-46
2022/12/05 04:01:41;;;;;;;29.80;19.35;;;7.50;68.30;;;;;;4995847;28;20124;-45
2022/12/05 04:04:18;;;;;;;35.23;22.03;;;7.50;68.20;;;;;;5026304;28;20037;-50
2022/12/05 04:06:49;;;;;;;32.20;21.50;;;7.50;68.30;;;;;;5016479;28;20306;-47
2022/12/05 04:09:27;;;;;;;30.90;20.67;;;7.50;68.30;;;;;;5021865;28;20046;-50
2022/12/05 04:12:06;;;;;;;31.27;21.30;;;7.50;68.40;;;;;;5023912;28;20068;-48
2022/12/05 04:14:43;;;;;;;34.45;21.88;;;7.50;68.40;;;;;;5026346;28;20129;-52
2022/12/05 04:17:35;;;;;;;37.72;23.45;;;7.50;68.50;;;;;;5007407;28;20453;-51
2022/12/05 04:22:58;;;;;;;35.40;22.25;;;7.50;68.60;;;;;;5019444;28;20046;-46
2022/12/05 04:25:32;;;;;;;31.63;22.60;;;7.50;68.40;;;;;;5025256;28;20042;-50
2022/12/05 04:28:02;;;;;;;36.20;22.10;;;7.50;68.40;;;;;;5025019;28;20033;-49
2022/12/05 04:31:00;;;;;;;34.53;22.85;;;7.50;68.50;;;;;;5028941;28;20051;-50
2022/12/05 04:33:55;;;;;;;31.95;22.27;;;7.50;68.50;;;;;;5025196;28;20506;-48
2022/12/05 04:36:39;;;;;;;31.17;22.00;;;7.50;68.70;;;;;;5021662;28;20046;-49
2022/12/05 04:39:12;;;;;;;;;;;7.50;68.40;;;;;;5034061;28;20080;-46
2022/12/05 04:41:55;;;;;;;36.20;21.20;;;7.50;69.20;;;;;;5025905;28;20381;-46
2022/12/05 04:44:27;;;;;;;34.65;22.77;;;7.50;68.20;;;;;;5029662;28;20057;-48
2022/12/05 04:47:00;;;;;;;33.53;22.63;;;7.50;68.20;;;;;;5013224;28;20046;-49
2022/12/05 04:49:29;;;;;;;34.40;23.07;;;7.50;68.40;;;;;;5016190;28;20397;-52
2022/12/05 04:52:05;;;;;;;36.47;23.98;;;7.50;68.40;;;;;;5024376;28;20045;-48
2022/12/05 04:54:55;;;;;;;37.03;23.17;;;7.50;68.60;;;;;;5022432;28;20049;-48
2022/12/05 04:57:59;;;;;;;38.03;24.77;;;7.50;69.10;;;;;;5013229;28;20260;-48
2022/12/05 05:00:31;;;;;;;38.00;23.60;;;7.50;69.20;;;;;;4995078;28;20405;-49
2022/12/05 05:03:09;;;;;;;33.30;21.73;;;7.50;68.70;;;;;;5022981;28;20045;-49
2022/12/05 05:05:37;;;;;;;37.58;23.77;;;7.50;68.80;;;;;;5023892;28;20050;-48
2022/12/05 05:08:04;;;;;;;35.38;22.55;;;7.50;68.70;;;;;;5018287;28;20627;-49
2022/12/05 05:10:39;;;;;;;38.85;23.77;;;7.50;68.80;;;;;;5021219;28;20503;-52
2022/12/05 05:13:06;;;;;;;41.78;24.65;;;7.50;68.80;;;;;;5024837;28;20683;-50
2022/12/05 05:15:33;;;;;;;33.75;23.92;;;7.50;68.70;;;;;;5026393;28;20596;-50
2022/12/05 05:17:59;;;;;;;35.55;23.95;;;7.50;68.90;;;;;;5012778;28;20386;-49
2022/12/05 05:20:26;;;;;;;39.10;24.02;;;7.50;69.00;;;;;;5017428;28;20490;-51
2022/12/05 05:22:57;;;;;;;40.15;24.70;;;7.50;69.00;;;;;;5014605;28;20616;-49
2022/12/05 05:25:24;;;;;;;38.95;24.00;;;7.50;69.50;;;;;;5011272;28;20049;-49
2022/12/05 05:27:53;;;;;;;44.60;25.38;;;7.50;69.10;;;;;;5013495;28;20048;-51
2022/12/05 05:30:21;;;;;;;38.45;23.90;;;7.50;69.00;;;;;;5017001;28;20038;-51
2022/12/05 05:32:48;;;;;;;34.28;21.88;;;7.50;68.90;;;;;;5011795;28;20413;-51
2022/12/05 05:35:15;;;;;;;35.00;23.05;;;7.50;69.00;;;;;;5011071;28;20413;-48
2022/12/05 05:37:42;;;;;;;37.00;24.45;;;7.50;69.00;;;;;;5024106;28;20069;-48
2022/12/05 05:40:11;;;;;;;37.20;24.20;;;7.50;69.10;;;;;;5018542;28;20042;-52
2022/12/05 05:42:46;;;;;;;38.03;24.17;;;7.50;69.20;;;;;;5021393;28;20049;-52
2022/12/05 05:45:14;;;;;;;38.88;22.88;;;7.50;69.20;;;;;;5027966;28;20038;-52
2022/12/05 05:47:41;;;;;;;35.95;22.88;;;7.50;69.00;;;;;;5030436;28;20045;-47
2022/12/05 05:50:09;;;;;;;40.08;24.08;;;7.50;69.60;;;;;;5023731;28;20528;-51
2022/12/05 05:52:41;;;;;;;33.92;22.25;;;7.50;69.00;;;;;;5027314;28;20120;-49
2022/12/05 05:55:09;;;;;;;38.13;22.90;;;7.50;69.00;;;;;;5006834;28;20038;-48
2022/12/05 05:57:36;;;;;;;35.28;22.23;;;7.50;69.00;;;;;;5021321;28;20049;-48
2022/12/05 06:00:05;;;;;;;38.40;24.40;;;7.50;69.00;;;;;;5022299;28;20164;-52
2022/12/05 06:02:34;;;;;;;37.70;23.67;;;7.50;69.10;;;;;;5028608;28;20077;-48
2022/12/05 06:05:01;;;;;;;35.65;22.35;;;7.50;69.20;;;;;;5029863;28;20053;-52
2022/12/05 06:07:28;;;;;;;32.83;22.60;;;7.50;69.10;;;;;;5025491;28;20083;-49
2022/12/05 06:09:54;;;;;;;32.80;22.50;;;7.50;69.10;;;;;;5023550;28;20120;-48
2022/12/05 06:12:22;;;;;;;34.28;21.23;;;7.50;69.00;;;;;;5011156;28;20045;-50
2022/12/05 06:14:49;;;;;;;37.30;24.48;;;7.50;69.10;;;;;;5013495;28;20042;-48
2022/12/05 06:17:16;;;;;;;29.67;21.65;;;7.50;69.20;;;;;;5017119;28;20045;-48
2022/12/05 06:19:42;;;;;;;32.38;22.48;;;7.50;69.40;;;;;;5013893;28;20049;-50
2022/12/05 06:22:09;;;;;;;34.20;22.60;;;7.50;70.10;;;;;;5011317;28;20070;-47
2022/12/05 06:24:36;;;;;;;31.98;23.05;;;7.50;70.30;;;;;;5024225;28;20056;-48
2022/12/05 06:27:03;;;;;;;29.75;21.30;;;7.50;69.50;;;;;;5028949;28;20040;-48
2022/12/05 06:29:30;;;;;;;30.67;21.02;;;7.50;69.50;;;;;;5020791;28;20038;-48
2022/12/05 06:32:00;;;;;;;31.58;20.83;;;7.50;69.40;;;;;;5029039;28;20409;-48
2022/12/05 06:34:27;;;;;;;27.77;19.35;;;7.50;69.30;;;;;;5023577;28;20132;-49
2022/12/05 06:36:53;;;;;;;34.20;20.50;;;7.50;69.30;;;;;;5028593;28;20053;-48
2022/12/05 06:39:20;;;;;;;30.73;20.45;;;7.50;69.30;;;;;;5014353;28;20037;-48
2022/12/05 06:41:47;;;;;;;33.45;20.83;;;7.50;69.30;;;;;;5005410;28;20048;-48
2022/12/05 06:44:13;;;;;;;35.58;20.92;;;7.50;69.30;;;;;;5017620;28;20045;-49
2022/12/05 06:46:40;;;;;;;32.25;21.73;;;7.50;69.30;;;;;;5022817;28;20052;-49
2022/12/05 06:49:12;;;;;;;38.30;23.00;;;7.50;70.00;;;;;;5022686;28;20044;-52
2022/12/05 06:51:39;;;;;;;33.50;21.02;;;7.50;69.50;;;;;;5013536;28;20048;-51
2022/12/05 06:54:10;;;;;;;33.40;22.05;;;7.50;69.50;;;;;;5008332;28;20064;-47
2022/12/05 06:56:37;;;;;;;21.83;15.33;;;7.50;69.50;;;;;;4992795;28;20042;-52
2022/12/05 06:59:03;;;;;;;29.63;21.70;;;7.50;69.50;;;;;;5040057;28;20144;-48
2022/12/05 07:01:42;;;;;;;32.90;22.45;;;7.50;69.50;;;;;;5026772;28;20485;-50
2022/12/05 07:04:19;;;;;;;30.17;20.77;;;7.50;69.60;;;;;;5017461;28;20095;-52
2022/12/05 07:06:48;;;;;;;34.92;21.85;;;7.50;69.60;;;;;;5009412;28;20057;-52
2022/12/05 07:09:44;;;;;;;29.65;19.88;;;7.50;69.70;;;;;;5018112;28;20040;-49
2022/12/05 07:12:12;;;;;;;28.75;19.73;;;7.50;69.80;;;;;;5015216;28;20041;-50
2022/12/05 07:14:39;;;;;;;30.83;20.05;;;7.50;69.70;;;;;;5016968;28;20053;-49
2022/12/05 07:17:19;;;;;;;33.30;21.85;;;7.50;69.70;;;;;;5022879;28;20063;-51
2022/12/05 07:19:48;;;;;;;34.67;22.08;;;7.50;69.80;;;;;;5019258;28;20041;-48
2022/12/05 07:22:16;;;;;;;32.05;20.00;;;7.50;69.80;;;;;;5009472;28;20042;-49
2022/12/05 07:24:44;;;;;;;30.92;20.60;;;7.60;69.80;;;;;;5011882;28;20124;-51
2022/12/05 07:27:11;;;;;;;34.90;20.98;;;7.60;69.90;;;;;;5019708;28;20128;-47
2022/12/05 07:29:38;;;;;;;31.95;20.30;;;7.50;69.80;;;;;;5005576;28;20040;-49
2022/12/05 07:32:05;;;;;;;32.35;20.33;;;7.50;69.90;;;;;;5017142;28;20405;-48
2022/12/05 07:34:31;;;;;;;31.05;20.45;;;7.60;70.00;;;;;;5012829;28;20049;-47
2022/12/05 07:36:59;;;;;;;30.60;19.77;;;7.60;70.00;;;;;;5008264;28;20046;-47
2022/12/05 07:39:26;;;;;;;35.00;21.33;;;7.60;70.10;;;;;;5021157;28;20046;-51
2022/12/05 07:41:52;;;;;;;30.30;20.25;;;7.60;70.00;;;;;;5014495;28;20673;-49
2022/12/05 07:44:19;;;;;;;31.45;20.85;;;7.60;70.00;;;;;;5017799;28;20056;-51
2022/12/05 07:46:48;;;;;;;29.25;20.42;;;7.60;69.90;;;;;;5010923;28;20036;-49
2022/12/05 07:49:15;;;;;;;29.85;20.02;;;7.60;69.80;;;;;;5013206;28;20080;-50
2022/12/05 07:51:45;;;;;;;29.40;20.30;;;7.60;69.90;;;;;;5013447;28;20052;-50
2022/12/05 07:54:12;;;;;;;30.90;20.98;;;7.60;69.90;;;;;;5005389;28;20038;-49
2022/12/05 07:56:38;;;;;;;27.98;19.10;;;7.60;70.00;;;;;;5012581;28;20045;-49
2022/12/05 07:59:13;;;;;;;26.30;18.85;;;7.60;69.90;;;;;;5015423;28;20045;-52
2022/12/05 08:01:39;;;;;;;32.10;21.10;;;7.60;69.70;;;;;;5024322;28;20041;-49
2022/12/05 08:04:06;;;;;;;30.40;19.27;;;7.60;69.70;;;;;;5024833;28;20085;-51
2022/12/05 08:06:42;;;;;;;29.48;20.20;;;7.60;69.70;;;;;;5028723;28;20460;-49
2022/12/05 08:09:09;;;;;;;32.15;22.13;;;7.60;69.70;;;;;;5023074;28;20034;-52
2022/12/05 08:11:36;;;;;;;34.90;23.80;;;7.60;69.70;;;;;;5012048;28;20052;-51
2022/12/05 08:14:04;;;;;;;30.92;21.85;;;7.60;69.70;;;;;;5012629;28;20056;-49
2022/12/05 08:16:32;;;;;;;30.42;20.67;;;7.60;69.70;;;;;;5020343;28;20473;-51
2022/12/05 08:19:05;;;;;;;28.70;20.35;;;7.60;69.70;;;;;;5024645;28;20068;-51
2022/12/05 08:21:32;;;;;;;26.80;19.40;;;7.60;69.70;;;;;;5011831;28;20048;-48
2022/12/05 08:23:59;;;;;;;28.30;19.80;;;7.60;69.50;;;;;;5013580;28;20124;-51
2022/12/05 08:26:30;;;;;;;32.90;20.70;;;7.60;69.40;;;;;;5016744;28;20192;-50
2022/12/05 08:29:03;;;;;;;32.00;20.98;;;7.60;69.50;;;;;;5012956;28;20036;-52
2022/12/05 08:31:33;;;;;;;28.83;19.02;;;7.60;69.50;;;;;;5012431;28;20088;-48
2022/12/05 08:34:03;;;;;;;30.27;19.27;;;7.50;69.30;;;;;;5012543;28;20069;-46
2022/12/05 08:36:31;;;;;;;30.42;20.20;;;7.50;69.20;;;;;;5026341;28;20456;-51
2022/12/05 08:39:00;;;;;;;31.67;20.17;;;7.50;69.30;;;;;;5026212;28;20033;-50
2022/12/05 08:41:30;;;;;;;29.88;20.15;;;7.50;69.30;;;;;;5031641;28;20042;-51
2022/12/05 08:44:00;;;;;;;32.38;20.35;;;7.50;69.30;;;;;;5021337;28;20085;-51
2022/12/05 08:46:27;;;;;;;32.35;20.90;;;7.50;69.20;;;;;;5017614;28;20059;-49
2022/12/05 08:48:53;;;;;;;29.90;19.90;;;7.40;69.30;;;;;;5017219;28;20065;-51
2022/12/05 08:51:20;;;;;;;28.35;19.20;;;7.50;69.40;;;;;;5015345;28;20053;-50
2022/12/05 08:53:47;;;;;;;30.08;20.05;;;7.50;69.40;;;;;;5012501;28;20475;-48
2022/12/05 08:56:14;;;;;;;31.35;21.00;;;7.50;69.40;;;;;;5012491;28;20150;-49
2022/12/05 08:58:41;;;;;;;31.83;21.27;;;7.40;69.30;;;;;;5016618;28;20074;-48
2022/12/05 09:01:07;;;;;;;31.42;21.58;;;7.40;69.30;;;;;;5021958;28;20497;-48
2022/12/05 09:03:35;;;;;;;28.73;20.23;;;7.40;69.30;;;;;;5013903;28;20052;-50
2022/12/05 09:06:11;;;;;;;29.90;19.98;;;7.40;69.30;;;;;;5027896;28;20455;-49
2022/12/05 09:08:39;;;;;;;28.55;19.45;;;7.50;69.30;;;;;;5016389;28;20069;-47
2022/12/05 09:11:17;;;;;;;34.10;22.15;;;7.40;69.20;;;;;;5033178;28;20493;-51
2022/12/05 09:13:45;;;;;;;28.98;20.38;;;7.40;69.20;;;;;;5014633;28;20057;-52
2022/12/05 09:16:18;;;;;;;29.65;20.20;;;7.40;69.10;;;;;;5023148;28;20517;-51
2022/12/05 09:18:47;;;;;;;30.17;20.70;;;7.40;69.10;;;;;;5017343;28;20050;-50
2022/12/05 09:21:16;;;;;;;28.98;20.40;;;7.40;69.00;;;;;;5026104;28;20056;-48
2022/12/05 09:23:43;;;;;;;30.23;20.17;;;7.40;69.10;;;;;;5018010;28;20046;-48
2022/12/05 09:26:12;;;;;;;25.92;18.25;;;7.40;69.00;;;;;;5022220;28;20438;-51
2022/12/05 09:28:40;;;;;;;27.98;19.73;;;7.40;69.20;;;;;;4992666;28;20049;-48
2022/12/05 09:31:10;;;;;;;25.45;18.30;;;7.40;69.20;;;;;;5013802;28;20457;-48
2022/12/05 09:33:37;;;;;;;25.85;19.17;;;7.40;69.20;;;;;;5019317;28;20042;-48
2022/12/05 09:36:12;;;;;;;28.23;19.38;;;7.40;69.20;;;;;;5028027;28;20465;-48
2022/12/05 09:38:40;;;;;;;29.85;18.85;;;7.40;69.20;;;;;;5020222;28;20045;-52
2022/12/05 09:44:45;;;;;;;26.00;17.13;;;7.40;69.20;;;;;;5013942;28;20048;-48
2022/12/05 09:47:27;;;;;;;;;;;7.50;69.10;;;;;;5028301;28;20065;-48
2022/12/05 09:49:56;;;;;;;25.67;16.42;;;7.50;69.30;;;;;;5028896;28;20004;-50
2022/12/05 09:52:50;;;;;;;21.80;16.83;;;7.50;69.00;;;;;;5022129;28;20068;-48
2022/12/05 09:55:19;;;;;;;19.92;14.18;;;7.50;68.50;;;;;;5011173;28;20050;-48
2022/12/05 09:57:56;;;;;;;17.73;13.85;;;7.50;68.40;;;;;;5018353;28;20080;-48
2022/12/05 10:00:27;;;;;;;18.35;13.50;;;7.50;68.10;;;;;;5018642;28;20045;-51
2022/12/05 10:03:25;;;;;;;17.73;13.48;;;7.60;68.20;;;;;;5027891;28;20137;-48
2022/12/05 10:06:07;;;;;;;18.73;13.65;;;7.50;68.00;;;;;;5019739;28;20405;-48
2022/12/05 10:08:55;;;;;;;17.30;13.13;;;7.50;67.80;;;;;;5026396;28;20041;-51
2022/12/05 10:12:02;;;;;;;18.35;13.23;;;7.50;67.60;;;;;;5028460;28;20064;-49
2022/12/05 10:14:47;;;;;;;16.88;12.90;;;7.50;67.70;;;;;;5030369;28;20124;-52
2022/12/05 10:17:26;;;;;;;16.65;12.85;;;7.50;67.80;;;;;;5015972;28;20604;-49
2022/12/05 10:19:57;;;;;;;14.82;12.02;;;7.50;67.70;;;;;;5026891;28;20046;-49
2022/12/05 10:22:39;;;;;;;16.15;12.32;;;7.40;67.60;;;;;;5014642;28;20052;-48
2022/12/05 10:25:06;;;;;;;;;;;7.40;67.60;;;;;;5012533;28;20096;-47
2022/12/05 10:27:36;;;;;;;13.95;10.80;;;7.50;67.70;;;;;;5017209;28;19928;-48
2022/12/05 10:30:13;;;;;;;16.45;12.82;;;7.40;67.60;;;;;;5024317;28;20049;-48
2022/12/05 10:32:54;;;;;;;15.98;12.88;;;7.40;67.70;;;;;;4989266;28;20121;-48
2022/12/05 10:35:22;;;;;;;15.82;13.27;;;7.40;68.00;;;;;;5003249;28;20038;-50
2022/12/05 10:37:56;;;;;;;17.63;13.35;;;7.40;68.00;;;;;;5015069;28;20116;-50
2022/12/05 10:40:32;;;;;;;15.77;12.02;;;7.40;67.60;;;;;;5016230;28;20054;-49
2022/12/05 10:42:58;;;;;;;16.90;12.48;;;7.40;67.60;;;;;;5017995;28;20068;-48
2022/12/05 10:45:25;;;;;;;17.17;12.95;;;7.40;67.60;;;;;;5012730;28;20667;-49
2022/12/05 10:47:55;;;;;;;13.85;12.30;;;7.40;67.60;;;;;;5016547;28;20064;-50
2022/12/05 10:50:22;;;;;;;16.30;13.48;;;7.40;67.90;;;;;;5027760;28;20046;-51
2022/12/05 10:52:52;;;;;;;16.52;12.50;;;7.40;67.80;;;;;;5009151;28;20049;-53
2022/12/05 10:55:19;;;;;;;15.57;12.82;;;7.40;67.80;;;;;;5011981;28;20067;-49
2022/12/05 10:58:06;;;;;;;16.98;12.50;;;7.40;67.90;;;;;;5014668;28;20046;-48
2022/12/05 11:00:45;;;;;;;13.88;12.18;;;7.40;67.70;;;;;;5016345;28;20415;-52
2022/12/05 11:03:29;;;;;;;12.75;8.75;;;7.40;67.60;;;;;;5008925;28;20057;-50
2022/12/05 11:06:02;;;;;;;12.80;11.25;;;7.40;67.60;;;;;;5025699;28;20420;-51
2022/12/05 11:08:32;;;;;;;13.80;11.15;;;7.40;67.60;;;;;;5026333;28;20046;-50
2022/12/05 11:11:32;;;;;;;13.52;11.27;;;7.40;67.60;;;;;;5025773;28;20124;-52
2022/12/05 11:14:00;;;;;;;12.85;10.93;;;7.40;67.70;;;;;;5025320;28;20045;-49
2022/12/05 11:16:35;;;;;;;14.10;10.93;;;7.40;67.60;;;;;;5020532;28;20421;-51
2022/12/05 11:19:20;;;;;;;12.80;10.73;;;7.40;67.60;;;;;;5011470;28;20049;-52
2022/12/05 11:21:48;;;;;;;12.38;10.73;;;7.40;67.60;;;;;;4989016;28;20140;-54
2022/12/05 11:24:28;;;;;;;14.10;11.85;;;7.40;67.60;;;;;;5026812;28;20547;-50
2022/12/05 11:26:56;;;;;;;12.57;10.73;;;7.40;67.80;;;;;;5026369;28;20073;-50
2022/12/05 11:29:36;;;;;;;13.23;10.85;;;7.40;67.60;;;;;;5020420;28;20636;-49
2022/12/05 11:32:04;;;;;;;11.65;10.45;;;7.40;67.60;;;;;;5023551;28;20052;-50
2022/12/05 11:34:44;;;;;;;12.32;10.07;;;7.40;67.60;;;;;;5022763;28;20106;-49
2022/12/05 11:37:13;;;;;;;12.55;10.30;;;7.40;67.60;;;;;;5008515;28;20045;-49
2022/12/05 11:39:40;;;;;;;13.90;11.07;;;7.30;67.50;;;;;;5010919;28;20041;-52
2022/12/05 11:42:38;;;;;;;14.43;11.82;;;7.40;67.60;;;;;;5002971;28;20038;-51
2022/12/05 11:45:20;;;;;;;11.40;9.88;;;7.40;67.90;;;;;;5011828;28;20038;-52
2022/12/05 11:48:09;;;;;;;12.38;9.85;;;7.40;67.80;;;;;;5012330;28;20073;-50
2022/12/05 11:50:49;;;;;;;11.65;9.90;;;7.40;67.60;;;;;;5017831;28;20506;-51
2022/12/05 11:53:47;;;;;;;12.15;10.20;;;7.40;67.60;;;;;;5016132;28;20038;-52
2022/12/05 11:56:25;;;;;;;12.82;9.98;;;7.40;67.60;;;;;;5015989;28;20516;-50
2022/12/05 11:58:59;;;;;;;12.88;10.18;;;7.40;67.60;;;;;;5027622;28;20720;-49
2022/12/05 12:01:42;;;;;;;10.63;9.45;;;7.40;67.40;;;;;;5013492;28;20422;-52
2022/12/05 12:04:43;;;;;;;10.70;9.55;;;7.40;67.30;;;;;;5051117;23;20041;-55
2022/12/05 12:07:39;;;;;;;10.55;9.32;;;7.40;67.30;;;;;;5011462;28;20046;-52
2022/12/05 12:10:45;;;;;;;9.88;8.50;;;7.40;67.40;;;;;;5008586;28;20038;-52
2022/12/05 12:13:18;;;;;;;11.18;9.23;;;7.40;67.40;;;;;;4999549;28;20056;-54
2022/12/05 12:16:16;;;;;;;12.13;9.63;;;7.30;67.30;;;;;;5005079;28;20388;-54
2022/12/05 12:19:01;;;;;;;11.20;9.70;;;7.30;67.20;;;;;;4988814;28;20121;-55
2022/12/05 12:21:43;;;;;;;11.82;9.88;;;7.20;67.40;;;;;;4988524;28;20056;-51
2022/12/05 12:24:26;;;;;;;13.32;10.02;;;7.20;67.40;;;;;;5002611;28;20074;-52
2022/12/05 12:27:15;;;;;;;10.27;9.25;;;7.20;67.50;;;;;;4987778;28;20131;-51
2022/12/05 12:30:00;;;;;;;12.13;9.97;;;7.20;67.40;;;;;;4989758;28;20141;-54
2022/12/05 12:33:01;;;;;;;12.48;10.00;;;7.20;67.40;;;;;;5013604;28;20055;-54
2022/12/05 12:35:36;;;;;;;12.95;10.32;;;7.10;67.60;;;;;;5000933;28;20049;-53
2022/12/05 12:38:16;;;;;;;12.32;9.30;;;7.10;67.60;;;;;;4996184;28;20043;-52
2022/12/05 12:40:52;;;;;;;11.57;10.20;;;7.10;67.80;;;;;;4996614;28;20129;-51
2022/12/05 12:43:18;;;;;;;12.02;10.43;;;7.10;67.80;;;;;;4996642;28;20049;-53
2022/12/05 12:46:24;;;;;;;14.05;11.23;;;7.10;67.80;;;;;;5012111;28;20054;-54
2022/12/05 12:49:06;;;;;;;13.05;10.63;;;7.10;67.80;;;;;;4988288;28;20046;-54
2022/12/05 12:51:33;;;;;;;11.55;9.63;;;7.10;67.80;;;;;;5000209;28;20144;-50
2022/12/05 12:54:19;;;;;;;11.60;9.88;;;7.10;67.80;;;;;;4985705;28;20117;-52
2022/12/05 12:57:10;;;;;;;10.13;8.98;;;7.10;67.90;;;;;;4985292;28;20122;-51
2022/12/05 13:00:11;;;;;;;11.93;9.60;;;7.00;67.90;;;;;;4991032;28;20035;-54
2022/12/05 13:02:51;;;;;;;10.85;8.48;;;7.10;68.00;;;;;;4988445;28;20564;-53
2022/12/05 13:05:33;;;;;;;12.02;9.32;;;7.00;67.80;;;;;;4981129;28;20069;-51
2022/12/05 13:08:12;;;;;;;10.77;9.23;;;7.00;67.90;;;;;;4985521;28;20050;-55
2022/12/05 13:10:44;;;;;;;10.95;9.30;;;7.10;68.10;;;;;;4980995;28;20289;-54
2022/12/05 13:13:27;;;;;;;9.73;8.73;;;6.90;67.90;;;;;;4989147;28;20042;-54
2022/12/05 13:15:57;;;;;;;11.95;9.07;;;7.10;68.00;;;;;;4987821;28;20409;-54
2022/12/05 13:18:25;;;;;;;10.60;8.93;;;7.10;67.90;;;;;;4989011;28;20511;-51
2022/12/05 13:20:55;;;;;;;11.32;8.98;;;7.10;67.90;;;;;;4982894;28;20049;-51